sensor_id;sensor_type;location;lat;lon;timestamp;temperature;humidity
73750;SHT30;62058;48.406;-4.514;2022-12-29T00:01:32;10.56;91.65
73750;SHT30;62058;48.406;-4.514;2022-12-29T00:03:57;10.63;93.61
73750;SHT30;62058;48.406;-4.514;2022-12-29T00:06:23;10.69;97.05
73750;SHT30;62058;48.406;-4.514;2022-12-29T00:08:49;10.63;93.72
73750;SHT30;62058;48.406;-4.514;2022-12-29T00:11:23;10.71;93.44
73750;SHT30;62058;48.406;-4.514;2022-12-29T00:13:49;10.75;96.18
73750;SHT30;62058;48.406;-4.514;2022-12-29T00:16:34;10.83;98.39
73750;SHT30;62058;48.406;-4.514;2022-12-29T00:19:01;10.80;97.03
73750;SHT30;62058;48.406;-4.514;2022-12-29T00:21:27;10.86;94.46
73750;SHT30;62058;48.406;-4.514;2022-12-29T00:29:47;10.86;94.38
73750;SHT30;62058;48.406;-4.514;2022-12-29T00:32:31;10.69;95.38
73750;SHT30;62058;48.406;-4.514;2022-12-29T00:35:25;10.46;97.35
73750;SHT30;62058;48.406;-4.514;2022-12-29T00:37:51;10.37;97.29
73750;SHT30;62058;48.406;-4.514;2022-12-29T00:40:36;10.29;96.00
73750;SHT30;62058;48.406;-4.514;2022-12-29T00:43:20;10.25;96.38
73750;SHT30;62058;48.406;-4.514;2022-12-29T00:46:04;10.22;93.51
73750;SHT30;62058;48.406;-4.514;2022-12-29T00:48:29;10.14;92.41
73750;SHT30;62058;48.406;-4.514;2022-12-29T00:51:13;10.22;91.97
73750;SHT30;62058;48.406;-4.514;2022-12-29T00:53:38;10.15;93.34
73750;SHT30;62058;48.406;-4.514;2022-12-29T00:56:04;10.15;91.98
73750;SHT30;62058;48.406;-4.514;2022-12-29T00:58:30;10.14;92.20
73750;SHT30;62058;48.406;-4.514;2022-12-29T01:01:03;10.21;93.96
73750;SHT30;62058;48.406;-4.514;2022-12-29T01:03:29;10.27;95.50
73750;SHT30;62058;48.406;-4.514;2022-12-29T01:05:54;10.32;92.13
73750;SHT30;62058;48.406;-4.514;2022-12-29T01:08:20;10.45;91.87
73750;SHT30;62058;48.406;-4.514;2022-12-29T01:10:45;10.53;93.59
73750;SHT30;62058;48.406;-4.514;2022-12-29T01:13:10;10.61;90.87
73750;SHT30;62058;48.406;-4.514;2022-12-29T01:15:36;10.52;95.93
73750;SHT30;62058;48.406;-4.514;2022-12-29T01:18:01;10.19;97.97
73750;SHT30;62058;48.406;-4.514;2022-12-29T01:20:26;9.94;95.80
73750;SHT30;62058;48.406;-4.514;2022-12-29T01:22:54;9.57;95.63
73750;SHT30;62058;48.406;-4.514;2022-12-29T01:25:20;9.54;96.74
73750;SHT30;62058;48.406;-4.514;2022-12-29T01:27:45;9.47;97.48
73750;SHT30;62058;48.406;-4.514;2022-12-29T01:30:11;9.36;98.23
73750;SHT30;62058;48.406;-4.514;2022-12-29T01:32:36;9.30;97.79
73750;SHT30;62058;48.406;-4.514;2022-12-29T01:35:02;9.26;97.59
73750;SHT30;62058;48.406;-4.514;2022-12-29T01:37:27;9.29;97.09
73750;SHT30;62058;48.406;-4.514;2022-12-29T01:39:53;9.32;97.72
73750;SHT30;62058;48.406;-4.514;2022-12-29T01:42:21;9.29;97.84
73750;SHT30;62058;48.406;-4.514;2022-12-29T01:44:51;9.27;98.10
73750;SHT30;62058;48.406;-4.514;2022-12-29T01:47:39;9.27;98.45
73750;SHT30;62058;48.406;-4.514;2022-12-29T01:50:16;9.33;97.51
73750;SHT30;62058;48.406;-4.514;2022-12-29T01:52:51;9.36;97.04
73750;SHT30;62058;48.406;-4.514;2022-12-29T01:55:20;9.47;96.98
73750;SHT30;62058;48.406;-4.514;2022-12-29T01:57:49;9.51;97.07
73750;SHT30;62058;48.406;-4.514;2022-12-29T02:00:16;9.60;96.61
73750;SHT30;62058;48.406;-4.514;2022-12-29T02:02:53;9.71;98.80
73750;SHT30;62058;48.406;-4.514;2022-12-29T02:05:33;9.67;97.66
73750;SHT30;62058;48.406;-4.514;2022-12-29T02:08:00;9.67;97.30
73750;SHT30;62058;48.406;-4.514;2022-12-29T02:10:28;9.60;94.38
73750;SHT30;62058;48.406;-4.514;2022-12-29T02:12:55;9.47;91.92
73750;SHT30;62058;48.406;-4.514;2022-12-29T02:18:25;9.53;94.92
73750;SHT30;62058;48.406;-4.514;2022-12-29T02:24:05;9.64;95.12
73750;SHT30;62058;48.406;-4.514;2022-12-29T02:26:37;9.67;96.83
73750;SHT30;62058;48.406;-4.514;2022-12-29T02:29:35;9.74;93.57
73750;SHT30;62058;48.406;-4.514;2022-12-29T02:32:21;9.84;95.74
73750;SHT30;62058;48.406;-4.514;2022-12-29T02:35:10;9.87;90.44
73750;SHT30;62058;48.406;-4.514;2022-12-29T02:42:43;10.21;88.44
73750;SHT30;62058;48.406;-4.514;2022-12-29T02:48:20;9.53;97.70
73750;SHT30;62058;48.406;-4.514;2022-12-29T02:50:50;9.27;94.84
73750;SHT30;62058;48.406;-4.514;2022-12-29T02:53:18;9.15;94.85
73750;SHT30;62058;48.406;-4.514;2022-12-29T02:56:04;9.12;94.44
73750;SHT30;62058;48.406;-4.514;2022-12-29T02:58:30;9.15;95.44
73750;SHT30;62058;48.406;-4.514;2022-12-29T03:04:21;9.22;96.32
73750;SHT30;62058;48.406;-4.514;2022-12-29T03:11:50;9.42;94.80
73750;SHT30;62058;48.406;-4.514;2022-12-29T03:14:43;9.53;90.75
73750;SHT30;62058;48.406;-4.514;2022-12-29T03:18:01;9.70;90.92
73750;SHT30;62058;48.406;-4.514;2022-12-29T03:24:13;9.57;90.69
73750;SHT30;62058;48.406;-4.514;2022-12-29T03:26:41;9.40;90.96
73750;SHT30;62058;48.406;-4.514;2022-12-29T03:29:09;9.08;89.70
73750;SHT30;62058;48.406;-4.514;2022-12-29T03:31:37;8.93;89.75
73750;SHT30;62058;48.406;-4.514;2022-12-29T03:34:04;8.74;87.65
73750;SHT30;62058;48.406;-4.514;2022-12-29T03:36:38;8.72;89.23
73750;SHT30;62058;48.406;-4.514;2022-12-29T03:39:10;8.74;91.40
73750;SHT30;62058;48.406;-4.514;2022-12-29T03:41:39;8.76;91.11
73750;SHT30;62058;48.406;-4.514;2022-12-29T03:44:06;8.81;88.20
73750;SHT30;62058;48.406;-4.514;2022-12-29T03:46:32;8.85;90.42
73750;SHT30;62058;48.406;-4.514;2022-12-29T03:48:57;8.98;90.02
73750;SHT30;62058;48.406;-4.514;2022-12-29T03:51:23;9.13;90.53
73750;SHT30;62058;48.406;-4.514;2022-12-29T03:53:48;9.26;89.31
73750;SHT30;62058;48.406;-4.514;2022-12-29T03:56:14;9.37;91.48
73750;SHT30;62058;48.406;-4.514;2022-12-29T03:58:39;9.42;89.63
73750;SHT30;62058;48.406;-4.514;2022-12-29T04:01:04;9.33;88.96
73750;SHT30;62058;48.406;-4.514;2022-12-29T04:03:30;9.20;90.73
73750;SHT30;62058;48.406;-4.514;2022-12-29T04:05:55;8.99;90.39
73750;SHT30;62058;48.406;-4.514;2022-12-29T04:08:20;8.89;91.66
73750;SHT30;62058;48.406;-4.514;2022-12-29T04:10:48;8.85;94.43
73750;SHT30;62058;48.406;-4.514;2022-12-29T04:13:14;8.81;93.19
73750;SHT30;62058;48.406;-4.514;2022-12-29T04:15:39;8.71;89.21
73750;SHT30;62058;48.406;-4.514;2022-12-29T04:18:04;8.71;91.37
73750;SHT30;62058;48.406;-4.514;2022-12-29T04:20:30;8.75;87.46
73750;SHT30;62058;48.406;-4.514;2022-12-29T04:23:14;8.79;88.37
73750;SHT30;62058;48.406;-4.514;2022-12-29T04:25:39;8.85;91.52
73750;SHT30;62058;48.406;-4.514;2022-12-29T04:28:05;8.89;88.06
73750;SHT30;62058;48.406;-4.514;2022-12-29T04:30:31;8.93;89.25
73750;SHT30;62058;48.406;-4.514;2022-12-29T04:32:57;9.02;92.53
73750;SHT30;62058;48.406;-4.514;2022-12-29T04:35:22;9.15;86.56
73750;SHT30;62058;48.406;-4.514;2022-12-29T04:37:47;9.25;87.95
73750;SHT30;62058;48.406;-4.514;2022-12-29T04:40:13;9.40;84.62
73750;SHT30;62058;48.406;-4.514;2022-12-29T04:42:38;9.50;85.00
73750;SHT30;62058;48.406;-4.514;2022-12-29T04:45:04;9.57;82.74
73750;SHT30;62058;48.406;-4.514;2022-12-29T04:47:29;9.69;86.14
73750;SHT30;62058;48.406;-4.514;2022-12-29T04:49:55;9.87;87.93
73750;SHT30;62058;48.406;-4.514;2022-12-29T04:52:20;9.66;91.20
73750;SHT30;62058;48.406;-4.514;2022-12-29T04:54:46;9.67;90.80
73750;SHT30;62058;48.406;-4.514;2022-12-29T04:57:11;9.42;90.86
73750;SHT30;62058;48.406;-4.514;2022-12-29T04:59:36;9.35;90.78
73750;SHT30;62058;48.406;-4.514;2022-12-29T05:02:02;9.33;90.60
73750;SHT30;62058;48.406;-4.514;2022-12-29T05:04:27;9.27;89.46
73750;SHT30;62058;48.406;-4.514;2022-12-29T05:06:53;9.23;90.40
73750;SHT30;62058;48.406;-4.514;2022-12-29T05:09:18;9.19;90.66
73750;SHT30;62058;48.406;-4.514;2022-12-29T05:11:43;9.18;91.41
73750;SHT30;62058;48.406;-4.514;2022-12-29T05:14:09;9.20;91.04
73750;SHT30;62058;48.406;-4.514;2022-12-29T05:16:34;9.16;91.04
73750;SHT30;62058;48.406;-4.514;2022-12-29T05:18:59;9.15;89.98
73750;SHT30;62058;48.406;-4.514;2022-12-29T05:21:25;9.13;91.36
73750;SHT30;62058;48.406;-4.514;2022-12-29T05:23:50;9.15;90.29
73750;SHT30;62058;48.406;-4.514;2022-12-29T05:26:16;9.18;90.30
73750;SHT30;62058;48.406;-4.514;2022-12-29T05:28:41;9.23;88.60
73750;SHT30;62058;48.406;-4.514;2022-12-29T05:31:06;9.35;89.80
73750;SHT30;62058;48.406;-4.514;2022-12-29T05:33:32;9.48;89.60
73750;SHT30;62058;48.406;-4.514;2022-12-29T05:36:06;9.57;88.36
73750;SHT30;62058;48.406;-4.514;2022-12-29T05:38:33;9.63;86.12
73750;SHT30;62058;48.406;-4.514;2022-12-29T05:40:58;9.67;88.99
73750;SHT30;62058;48.406;-4.514;2022-12-29T05:43:23;9.64;88.61
73750;SHT30;62058;48.406;-4.514;2022-12-29T05:45:49;9.71;89.23
73750;SHT30;62058;48.406;-4.514;2022-12-29T05:48:15;9.66;87.02
73750;SHT30;62058;48.406;-4.514;2022-12-29T05:50:40;9.67;89.73
73750;SHT30;62058;48.406;-4.514;2022-12-29T05:53:06;9.63;89.09
73750;SHT30;62058;48.406;-4.514;2022-12-29T05:55:31;9.61;89.70
73750;SHT30;62058;48.406;-4.514;2022-12-29T05:57:56;9.56;89.75
73750;SHT30;62058;48.406;-4.514;2022-12-29T06:00:22;9.53;88.23
73750;SHT30;62058;48.406;-4.514;2022-12-29T06:02:47;9.53;90.73
73750;SHT30;62058;48.406;-4.514;2022-12-29T06:05:13;9.53;90.26
73750;SHT30;62058;48.406;-4.514;2022-12-29T06:07:38;9.54;85.32
73750;SHT30;62058;48.406;-4.514;2022-12-29T06:10:05;9.53;88.94
73750;SHT30;62058;48.406;-4.514;2022-12-29T06:12:30;9.57;86.25
73750;SHT30;62058;48.406;-4.514;2022-12-29T06:14:56;9.57;85.40
73750;SHT30;62058;48.406;-4.514;2022-12-29T06:17:21;9.54;83.21
73750;SHT30;62058;48.406;-4.514;2022-12-29T06:19:46;9.60;81.16
73750;SHT30;62058;48.406;-4.514;2022-12-29T06:22:12;9.61;81.65
73750;SHT30;62058;48.406;-4.514;2022-12-29T06:24:38;9.60;81.71
73750;SHT30;62058;48.406;-4.514;2022-12-29T06:27:06;9.67;83.88
73750;SHT30;62058;48.406;-4.514;2022-12-29T06:29:32;9.77;80.80
73750;SHT30;62058;48.406;-4.514;2022-12-29T06:31:57;10.00;80.17
73750;SHT30;62058;48.406;-4.514;2022-12-29T06:34:24;10.05;83.46
73750;SHT30;62058;48.406;-4.514;2022-12-29T06:36:51;9.88;84.27
73750;SHT30;62058;48.406;-4.514;2022-12-29T06:39:16;9.78;85.00
73750;SHT30;62058;48.406;-4.514;2022-12-29T06:41:41;9.57;94.51
73750;SHT30;62058;48.406;-4.514;2022-12-29T06:44:07;9.50;94.95
73750;SHT30;62058;48.406;-4.514;2022-12-29T06:46:32;9.32;95.10
73750;SHT30;62058;48.406;-4.514;2022-12-29T06:48:58;9.06;95.13
73750;SHT30;62058;48.406;-4.514;2022-12-29T06:51:23;8.91;95.25
73750;SHT30;62058;48.406;-4.514;2022-12-29T06:53:49;8.82;95.20
73750;SHT30;62058;48.406;-4.514;2022-12-29T06:56:14;8.81;99.99
73750;SHT30;62058;48.406;-4.514;2022-12-29T06:58:39;8.78;93.34
73750;SHT30;62058;48.406;-4.514;2022-12-29T07:01:05;8.78;90.08
73750;SHT30;62058;48.406;-4.514;2022-12-29T07:03:31;8.72;89.85
73750;SHT30;62058;48.406;-4.514;2022-12-29T07:05:56;8.72;87.31
73750;SHT30;62058;48.406;-4.514;2022-12-29T07:08:23;8.74;89.24
73750;SHT30;62058;48.406;-4.514;2022-12-29T07:10:49;8.72;84.27
73750;SHT30;62058;48.406;-4.514;2022-12-29T07:13:14;8.79;88.61
73750;SHT30;62058;48.406;-4.514;2022-12-29T07:15:39;8.79;85.56
73750;SHT30;62058;48.406;-4.514;2022-12-29T07:18:05;8.85;84.45
73750;SHT30;62058;48.406;-4.514;2022-12-29T07:20:31;8.91;87.39
73750;SHT30;62058;48.406;-4.514;2022-12-29T07:22:56;8.92;85.63
73750;SHT30;62058;48.406;-4.514;2022-12-29T07:25:22;9.01;84.56
73750;SHT30;62058;48.406;-4.514;2022-12-29T07:27:48;9.02;84.41
73750;SHT30;62058;48.406;-4.514;2022-12-29T07:30:14;9.13;87.34
73750;SHT30;62058;48.406;-4.514;2022-12-29T07:32:40;9.22;85.13
73750;SHT30;62058;48.406;-4.514;2022-12-29T07:35:06;9.25;82.08
73750;SHT30;62058;48.406;-4.514;2022-12-29T07:37:31;9.27;82.88
73750;SHT30;62058;48.406;-4.514;2022-12-29T07:39:57;9.25;82.71
73750;SHT30;62058;48.406;-4.514;2022-12-29T07:42:22;9.29;86.95
73750;SHT30;62058;48.406;-4.514;2022-12-29T07:44:48;9.27;82.98
73750;SHT30;62058;48.406;-4.514;2022-12-29T07:47:13;9.30;81.39
73750;SHT30;62058;48.406;-4.514;2022-12-29T07:49:39;9.37;84.44
73750;SHT30;62058;48.406;-4.514;2022-12-29T07:52:04;9.39;81.22
73750;SHT30;62058;48.406;-4.514;2022-12-29T07:54:29;9.39;80.70
73750;SHT30;62058;48.406;-4.514;2022-12-29T07:56:55;9.39;85.00
73750;SHT30;62058;48.406;-4.514;2022-12-29T07:59:20;9.33;80.55
73750;SHT30;62058;48.406;-4.514;2022-12-29T08:01:46;9.36;85.44
73750;SHT30;62058;48.406;-4.514;2022-12-29T08:04:12;9.35;85.50
73750;SHT30;62058;48.406;-4.514;2022-12-29T08:06:37;9.42;80.72
73750;SHT30;62058;48.406;-4.514;2022-12-29T08:09:03;9.42;80.65
73750;SHT30;62058;48.406;-4.514;2022-12-29T08:11:28;9.50;82.87
73750;SHT30;62058;48.406;-4.514;2022-12-29T08:13:54;9.47;81.64
73750;SHT30;62058;48.406;-4.514;2022-12-29T08:16:19;9.53;81.27
73750;SHT30;62058;48.406;-4.514;2022-12-29T08:18:44;9.56;86.89
73750;SHT30;62058;48.406;-4.514;2022-12-29T08:21:10;9.53;83.41
73750;SHT30;62058;48.406;-4.514;2022-12-29T08:23:36;9.51;83.20
73750;SHT30;62058;48.406;-4.514;2022-12-29T08:26:04;9.53;86.58
73750;SHT30;62058;48.406;-4.514;2022-12-29T08:28:30;9.51;81.18
73750;SHT30;62058;48.406;-4.514;2022-12-29T08:31:00;9.54;85.51
73750;SHT30;62058;48.406;-4.514;2022-12-29T08:33:26;9.51;81.44
73750;SHT30;62058;48.406;-4.514;2022-12-29T08:35:52;9.57;86.94
73750;SHT30;62058;48.406;-4.514;2022-12-29T08:38:17;9.56;82.67
73750;SHT30;62058;48.406;-4.514;2022-12-29T08:40:43;9.53;83.27
73750;SHT30;62058;48.406;-4.514;2022-12-29T08:43:09;9.53;85.44
73750;SHT30;62058;48.406;-4.514;2022-12-29T08:45:34;9.56;83.43
73750;SHT30;62058;48.406;-4.514;2022-12-29T08:48:00;9.60;84.36
73750;SHT30;62058;48.406;-4.514;2022-12-29T08:50:25;9.69;83.09
73750;SHT30;62058;48.406;-4.514;2022-12-29T08:52:51;9.74;86.46
73750;SHT30;62058;48.406;-4.514;2022-12-29T08:55:16;9.81;85.51
73750;SHT30;62058;48.406;-4.514;2022-12-29T08:57:42;9.90;84.34
73750;SHT30;62058;48.406;-4.514;2022-12-29T09:00:07;10.00;78.95
73750;SHT30;62058;48.406;-4.514;2022-12-29T09:02:33;10.15;78.51
73750;SHT30;62058;48.406;-4.514;2022-12-29T09:04:58;10.35;83.97
73750;SHT30;62058;48.406;-4.514;2022-12-29T09:07:25;10.52;81.05
73750;SHT30;62058;48.406;-4.514;2022-12-29T09:09:50;10.53;75.27
73750;SHT30;62058;48.406;-4.514;2022-12-29T09:12:17;10.61;73.86
73750;SHT30;62058;48.406;-4.514;2022-12-29T09:14:43;10.66;74.55
73750;SHT30;62058;48.406;-4.514;2022-12-29T09:17:10;10.71;76.02
73750;SHT30;62058;48.406;-4.514;2022-12-29T09:19:54;10.76;74.01
73750;SHT30;62058;48.406;-4.514;2022-12-29T09:22:20;10.80;78.55
73750;SHT30;62058;48.406;-4.514;2022-12-29T09:24:45;10.88;78.46
73750;SHT30;62058;48.406;-4.514;2022-12-29T09:27:10;10.99;79.39
73750;SHT30;62058;48.406;-4.514;2022-12-29T09:29:36;10.72;85.27
73750;SHT30;62058;48.406;-4.514;2022-12-29T09:32:01;10.08;88.26
73750;SHT30;62058;48.406;-4.514;2022-12-29T09:34:27;9.84;89.77
73750;SHT30;62058;48.406;-4.514;2022-12-29T09:36:52;9.74;91.32
73750;SHT30;62058;48.406;-4.514;2022-12-29T09:39:17;9.70;91.80
73750;SHT30;62058;48.406;-4.514;2022-12-29T09:41:51;9.61;92.60
73750;SHT30;62058;48.406;-4.514;2022-12-29T09:44:26;9.71;92.80
73750;SHT30;62058;48.406;-4.514;2022-12-29T09:46:54;9.78;92.63
73750;SHT30;62058;48.406;-4.514;2022-12-29T09:49:32;9.87;92.44
73750;SHT30;62058;48.406;-4.514;2022-12-29T09:52:04;9.94;92.12
73750;SHT30;62058;48.406;-4.514;2022-12-29T09:57:15;10.22;93.83
73750;SHT30;62058;48.406;-4.514;2022-12-29T09:59:42;10.42;92.95
73750;SHT30;62058;48.406;-4.514;2022-12-29T10:04:37;10.84;94.09
73750;SHT30;62058;48.406;-4.514;2022-12-29T10:07:17;10.90;92.63
73750;SHT30;62058;48.406;-4.514;2022-12-29T10:10:12;10.32;94.18
73750;SHT30;62058;48.406;-4.514;2022-12-29T10:18:03;9.53;94.67
73750;SHT30;62058;48.406;-4.514;2022-12-29T10:20:52;9.61;94.80
73750;SHT30;62058;48.406;-4.514;2022-12-29T10:26:10;9.51;94.92
73750;SHT30;62058;48.406;-4.514;2022-12-29T10:28:42;9.53;94.95
73750;SHT30;62058;48.406;-4.514;2022-12-29T10:31:15;9.60;94.99
73750;SHT30;62058;48.406;-4.514;2022-12-29T10:33:43;9.53;94.99
73750;SHT30;62058;48.406;-4.514;2022-12-29T10:36:20;9.54;95.01
73750;SHT30;62058;48.406;-4.514;2022-12-29T10:39:00;9.43;95.03
73750;SHT30;62058;48.406;-4.514;2022-12-29T10:41:49;9.35;95.03
73750;SHT30;62058;48.406;-4.514;2022-12-29T10:44:18;9.37;95.10
73750;SHT30;62058;48.406;-4.514;2022-12-29T10:46:55;9.30;95.17
73750;SHT30;62058;48.406;-4.514;2022-12-29T10:49:21;9.40;97.95
73750;SHT30;62058;48.406;-4.514;2022-12-29T10:51:48;9.46;97.43
73750;SHT30;62058;48.406;-4.514;2022-12-29T10:54:25;9.46;96.88
73750;SHT30;62058;48.406;-4.514;2022-12-29T10:57:00;9.57;96.42
73750;SHT30;62058;48.406;-4.514;2022-12-29T10:59:31;9.58;95.68
73750;SHT30;62058;48.406;-4.514;2022-12-29T11:07:17;9.86;97.61
73750;SHT30;62058;48.406;-4.514;2022-12-29T11:09:44;10.04;96.89
73750;SHT30;62058;48.406;-4.514;2022-12-29T11:12:25;10.32;99.06
73750;SHT30;62058;48.406;-4.514;2022-12-29T11:15:11;10.49;94.74
73750;SHT30;62058;48.406;-4.514;2022-12-29T11:17:49;10.44;92.89
73750;SHT30;62058;48.406;-4.514;2022-12-29T11:20:36;10.49;95.89
73750;SHT30;62058;48.406;-4.514;2022-12-29T11:23:22;10.46;94.61
73750;SHT30;62058;48.406;-4.514;2022-12-29T11:28:31;10.39;92.53
73750;SHT30;62058;48.406;-4.514;2022-12-29T11:31:02;10.52;88.98
73750;SHT30;62058;48.406;-4.514;2022-12-29T11:33:29;10.45;94.48
73750;SHT30;62058;48.406;-4.514;2022-12-29T11:36:05;10.53;96.75
73750;SHT30;62058;48.406;-4.514;2022-12-29T11:38:45;10.71;97.94
73750;SHT30;62058;48.406;-4.514;2022-12-29T11:41:13;10.93;96.30
73750;SHT30;62058;48.406;-4.514;2022-12-29T11:43:44;11.27;92.81
73750;SHT30;62058;48.406;-4.514;2022-12-29T11:46:25;11.58;91.26
73750;SHT30;62058;48.406;-4.514;2022-12-29T11:48:52;11.86;89.60
73750;SHT30;62058;48.406;-4.514;2022-12-29T11:54:04;11.82;84.61
73750;SHT30;62058;48.406;-4.514;2022-12-29T11:56:39;11.70;88.11
73750;SHT30;62058;48.406;-4.514;2022-12-29T12:01:57;9.78;94.26
73750;SHT30;62058;48.406;-4.514;2022-12-29T12:04:26;9.50;94.32
73750;SHT30;62058;48.406;-4.514;2022-12-29T12:07:03;9.46;94.44
73750;SHT30;62058;48.406;-4.514;2022-12-29T12:09:43;9.44;94.48
73750;SHT30;62058;48.406;-4.514;2022-12-29T12:12:22;9.46;94.55
73750;SHT30;62058;48.406;-4.514;2022-12-29T12:14:55;9.40;94.57
73750;SHT30;62058;48.406;-4.514;2022-12-29T12:17:40;9.37;94.59
73750;SHT30;62058;48.406;-4.514;2022-12-29T12:20:19;9.43;94.65
73750;SHT30;62058;48.406;-4.514;2022-12-29T12:23:06;9.40;94.65
73750;SHT30;62058;48.406;-4.514;2022-12-29T12:25:39;9.39;94.66
73750;SHT30;62058;48.406;-4.514;2022-12-29T12:30:47;9.23;94.67
73750;SHT30;62058;48.406;-4.514;2022-12-29T12:33:33;9.46;94.71
73750;SHT30;62058;48.406;-4.514;2022-12-29T14:23:38;16.16;95.16
73750;SHT30;62058;48.406;-4.514;2022-12-29T14:40:47;14.16;95.28
73750;SHT30;62058;48.406;-4.514;2022-12-29T14:43:20;14.03;95.27
73750;SHT30;62058;48.406;-4.514;2022-12-29T14:45:54;14.88;95.30
73750;SHT30;62058;48.406;-4.514;2022-12-29T14:48:37;15.49;95.29
73750;SHT30;62058;48.406;-4.514;2022-12-29T14:51:29;15.67;95.30
73750;SHT30;62058;48.406;-4.514;2022-12-29T14:53:56;14.37;95.27
73750;SHT30;62058;48.406;-4.514;2022-12-29T14:56:27;13.51;95.33
73750;SHT30;62058;48.406;-4.514;2022-12-29T14:58:54;13.28;95.38
73750;SHT30;62058;48.406;-4.514;2022-12-29T15:01:38;14.20;95.46
73750;SHT30;62058;48.406;-4.514;2022-12-29T15:04:23;15.31;95.57
73750;SHT30;62058;48.406;-4.514;2022-12-29T15:06:50;16.16;95.79
73750;SHT30;62058;48.406;-4.514;2022-12-29T15:09:45;16.07;95.74
73750;SHT30;62058;48.406;-4.514;2022-12-29T15:14:56;14.06;85.24
73750;SHT30;62058;48.406;-4.514;2022-12-29T15:17:33;14.17;82.84
73750;SHT30;62058;48.406;-4.514;2022-12-29T15:20:02;14.56;76.40
73750;SHT30;62058;48.406;-4.514;2022-12-29T15:22:43;14.84;79.85
73750;SHT30;62058;48.406;-4.514;2022-12-29T15:25:15;14.57;82.28
73750;SHT30;62058;48.406;-4.514;2022-12-29T15:27:41;14.26;72.02
73750;SHT30;62058;48.406;-4.514;2022-12-29T15:30:12;13.76;83.66
73750;SHT30;62058;48.406;-4.514;2022-12-29T15:32:42;13.34;84.33
73750;SHT30;62058;48.406;-4.514;2022-12-29T15:37:57;12.76;81.88
73750;SHT30;62058;48.406;-4.514;2022-12-29T15:40:28;12.59;85.42
73750;SHT30;62058;48.406;-4.514;2022-12-29T15:42:58;12.47;83.39
73750;SHT30;62058;48.406;-4.514;2022-12-29T15:45:32;12.29;84.13
73750;SHT30;62058;48.406;-4.514;2022-12-29T15:47:58;12.14;84.35
73750;SHT30;62058;48.406;-4.514;2022-12-29T15:50:29;11.98;84.24
73750;SHT30;62058;48.406;-4.514;2022-12-29T15:52:56;11.85;83.57
73750;SHT30;62058;48.406;-4.514;2022-12-29T15:55:41;11.75;88.09
73750;SHT30;62058;48.406;-4.514;2022-12-29T15:58:23;11.64;86.89
73750;SHT30;62058;48.406;-4.514;2022-12-29T16:00:51;11.50;82.23
73750;SHT30;62058;48.406;-4.514;2022-12-29T16:03:18;11.38;87.05
73750;SHT30;62058;48.406;-4.514;2022-12-29T16:05:52;11.26;85.26
73750;SHT30;62058;48.406;-4.514;2022-12-29T16:08:27;11.16;89.28
73750;SHT30;62058;48.406;-4.514;2022-12-29T16:10:53;11.03;81.47
73750;SHT30;62058;48.406;-4.514;2022-12-29T16:13:37;10.97;80.99
73750;SHT30;62058;48.406;-4.514;2022-12-29T16:16:26;10.95;89.19
73750;SHT30;62058;48.406;-4.514;2022-12-29T16:18:54;10.83;82.18
73750;SHT30;62058;48.406;-4.514;2022-12-29T16:21:25;10.83;87.17
73750;SHT30;62058;48.406;-4.514;2022-12-29T16:23:53;10.73;85.01
73750;SHT30;62058;48.406;-4.514;2022-12-29T16:26:21;10.68;83.30
73750;SHT30;62058;48.406;-4.514;2022-12-29T16:28:50;10.62;83.81
73750;SHT30;62058;48.406;-4.514;2022-12-29T16:31:21;10.61;90.71
73750;SHT30;62058;48.406;-4.514;2022-12-29T16:33:54;10.53;85.93
73750;SHT30;62058;48.406;-4.514;2022-12-29T16:36:53;10.53;86.74
73750;SHT30;62058;48.406;-4.514;2022-12-29T16:39:23;10.52;85.74
73750;SHT30;62058;48.406;-4.514;2022-12-29T16:41:51;10.56;83.79
73750;SHT30;62058;48.406;-4.514;2022-12-29T16:47:16;10.56;81.51
73750;SHT30;62058;48.406;-4.514;2022-12-29T16:49:49;10.58;89.24
73750;SHT30;62058;48.406;-4.514;2022-12-29T16:52:23;10.49;80.58
73750;SHT30;62058;48.406;-4.514;2022-12-29T16:54:53;10.46;80.44
73750;SHT30;62058;48.406;-4.514;2022-12-29T16:57:28;10.42;85.44
73750;SHT30;62058;48.406;-4.514;2022-12-29T16:59:57;10.35;82.40
73750;SHT30;62058;48.406;-4.514;2022-12-29T17:02:25;10.27;82.83
73750;SHT30;62058;48.406;-4.514;2022-12-29T17:04:52;10.22;87.15
73750;SHT30;62058;48.406;-4.514;2022-12-29T17:07:23;10.18;88.03
73750;SHT30;62058;48.406;-4.514;2022-12-29T17:09:49;10.14;85.97
73750;SHT30;62058;48.406;-4.514;2022-12-29T17:12:26;10.11;81.60
73750;SHT30;62058;48.406;-4.514;2022-12-29T17:14:58;10.09;86.71
73750;SHT30;62058;48.406;-4.514;2022-12-29T17:17:38;10.05;86.37
73750;SHT30;62058;48.406;-4.514;2022-12-29T17:22:39;10.02;84.45
73750;SHT30;62058;48.406;-4.514;2022-12-29T17:25:05;10.00;87.63
73750;SHT30;62058;48.406;-4.514;2022-12-29T17:27:38;9.94;87.78
73750;SHT30;62058;48.406;-4.514;2022-12-29T17:30:21;9.95;88.90
73750;SHT30;62058;48.406;-4.514;2022-12-29T17:33:06;9.94;86.66
73750;SHT30;62058;48.406;-4.514;2022-12-29T17:35:34;9.90;88.21
73750;SHT30;62058;48.406;-4.514;2022-12-29T17:38:00;9.90;87.36
73750;SHT30;62058;48.406;-4.514;2022-12-29T17:40:27;9.88;87.46
73750;SHT30;62058;48.406;-4.514;2022-12-29T17:42:55;9.86;89.04
73750;SHT30;62058;48.406;-4.514;2022-12-29T17:45:26;9.84;88.85
73750;SHT30;62058;48.406;-4.514;2022-12-29T17:47:52;9.83;85.91
73750;SHT30;62058;48.406;-4.514;2022-12-29T17:50:20;9.86;88.90
73750;SHT30;62058;48.406;-4.514;2022-12-29T17:52:53;9.86;87.88
73750;SHT30;62058;48.406;-4.514;2022-12-29T17:55:21;9.87;87.52
73750;SHT30;62058;48.406;-4.514;2022-12-29T17:57:47;9.90;91.41
73750;SHT30;62058;48.406;-4.514;2022-12-29T18:00:27;9.86;86.27
73750;SHT30;62058;48.406;-4.514;2022-12-29T18:02:57;9.90;89.23
73750;SHT30;62058;48.406;-4.514;2022-12-29T18:05:27;9.93;84.57
73750;SHT30;62058;48.406;-4.514;2022-12-29T18:07:54;9.95;86.61
73750;SHT30;62058;48.406;-4.514;2022-12-29T18:10:21;10.00;83.65
73750;SHT30;62058;48.406;-4.514;2022-12-29T18:12:49;10.01;83.05
73750;SHT30;62058;48.406;-4.514;2022-12-29T18:15:24;10.05;84.84
73750;SHT30;62058;48.406;-4.514;2022-12-29T18:18:00;10.08;85.50
73750;SHT30;62058;48.406;-4.514;2022-12-29T18:20:28;10.11;88.10
73750;SHT30;62058;48.406;-4.514;2022-12-29T18:22:54;10.09;84.59
73750;SHT30;62058;48.406;-4.514;2022-12-29T18:25:24;10.14;86.80
73750;SHT30;62058;48.406;-4.514;2022-12-29T18:27:50;10.17;89.93
73750;SHT30;62058;48.406;-4.514;2022-12-29T18:30:16;10.19;85.30
73750;SHT30;62058;48.406;-4.514;2022-12-29T18:32:42;10.21;83.64
73750;SHT30;62058;48.406;-4.514;2022-12-29T18:35:19;10.24;87.16
73750;SHT30;62058;48.406;-4.514;2022-12-29T18:37:47;10.24;83.37
73750;SHT30;62058;48.406;-4.514;2022-12-29T18:40:12;10.25;84.95
73750;SHT30;62058;48.406;-4.514;2022-12-29T18:42:38;10.25;83.55
73750;SHT30;62058;48.406;-4.514;2022-12-29T18:45:15;10.37;91.13
73750;SHT30;62058;48.406;-4.514;2022-12-29T18:47:41;10.38;87.51
73750;SHT30;62058;48.406;-4.514;2022-12-29T18:50:06;10.35;86.60
73750;SHT30;62058;48.406;-4.514;2022-12-29T18:52:32;10.39;84.18
73750;SHT30;62058;48.406;-4.514;2022-12-29T18:54:57;10.39;91.84
73750;SHT30;62058;48.406;-4.514;2022-12-29T18:57:23;10.44;87.61